createdAt,value
2022-10-23T00:01:48.059Z,100570.38
2022-10-23T00:04:20.501Z,100562.63
2022-10-23T00:06:50.280Z,100560.31
2022-10-23T00:09:22.455Z,100566.00
2022-10-23T00:11:52.185Z,100566.28
2022-10-23T00:14:24.542Z,100567.63
2022-10-23T00:16:53.262Z,100572.31
2022-10-23T00:19:21.533Z,100564.66
2022-10-23T00:21:50.103Z,100564.06
2022-10-23T00:24:18.941Z,100568.59
2022-10-23T00:26:47.310Z,100569.53
2022-10-23T00:29:15.598Z,100568.09
2022-10-23T00:31:43.900Z,100560.25
2022-10-23T00:34:12.377Z,100556.03
2022-10-23T00:36:40.990Z,100562.66
2022-10-23T00:39:09.281Z,100561.31
2022-10-23T00:41:37.725Z,100567.63
2022-10-23T00:44:09.125Z,100565.41
2022-10-23T00:46:39.421Z,100572.97
2022-10-23T00:49:09.729Z,100575.75
2022-10-23T00:52:00.866Z,100583.97
2022-10-23T00:54:34.234Z,100582.41
2022-10-23T00:57:05.539Z,100573.81
2022-10-23T00:59:36.979Z,100574.09
2022-10-23T01:02:06.923Z,100575.44
2022-10-23T01:04:36.166Z,100576.56
2022-10-23T01:07:27.515Z,100584.75
2022-10-23T01:10:07.856Z,100596.53
2022-10-23T01:13:08.820Z,100589.81
2022-10-23T01:16:02.772Z,100600.06
2022-10-23T01:18:49.361Z,100599.56
2022-10-23T01:21:28.390Z,100589.88
2022-10-23T01:24:10.075Z,100593.63
2022-10-23T01:26:56.495Z,100593.91
2022-10-23T01:29:44.055Z,100594.53
2022-10-23T01:32:28.860Z,100599.53
2022-10-23T01:35:02.579Z,100599.88
2022-10-23T01:37:51.095Z,100603.00
2022-10-23T01:40:34.612Z,100609.31
2022-10-23T01:43:17.870Z,100614.13
2022-10-23T01:45:59.880Z,100606.78
2022-10-23T01:48:32.190Z,100615.13
2022-10-23T01:51:08.485Z,100622.53
2022-10-23T01:53:42.190Z,100629.09
2022-10-23T01:56:16.633Z,100628.59
2022-10-23T01:58:49.350Z,100618.16
2022-10-23T02:01:21.276Z,100624.63
2022-10-23T02:03:51.289Z,100633.69
2022-10-23T02:06:19.923Z,100642.56
2022-10-23T02:08:51.196Z,100644.53
2022-10-23T02:11:22.679Z,100644.00
2022-10-23T02:14:25.975Z,100643.47
2022-10-23T02:16:56.238Z,100648.16
2022-10-23T02:19:37.850Z,100649.97
2022-10-23T02:22:26.633Z,100647.31
2022-10-23T02:25:07.415Z,100652.97
2022-10-23T02:27:46.605Z,100649.69
2022-10-23T02:30:20.548Z,100661.47
2022-10-23T02:32:52.375Z,100662.66
2022-10-23T02:35:25.595Z,100670.75
2022-10-23T02:37:59.095Z,100682.53
2022-10-23T02:40:38.830Z,100687.06
2022-10-23T02:43:18.320Z,100703.09
2022-10-23T02:46:32.860Z,100704.13
2022-10-23T02:49:32.749Z,100702.41
2022-10-23T02:52:42.312Z,100702.41
2022-10-23T02:55:22.913Z,100698.94
2022-10-23T02:58:17.120Z,100707.03
2022-10-23T03:00:53.621Z,100711.66
2022-10-23T03:03:34.939Z,100716.25
2022-10-23T03:06:03.911Z,100718.38
2022-10-23T03:08:41.660Z,100718.13
2022-10-23T03:11:09.961Z,100719.19
2022-10-23T03:13:38.305Z,100720.97
2022-10-23T03:16:06.610Z,100714.72
2022-10-23T03:18:34.885Z,100710.56
2022-10-23T03:21:03.580Z,100715.97
2022-10-23T03:23:31.878Z,100726.66
2022-10-23T03:26:00.205Z,100720.44
2022-10-23T03:28:28.546Z,100718.66
2022-10-23T03:30:57.341Z,100718.69
2022-10-23T03:33:25.818Z,100719.69
2022-10-23T03:35:54.083Z,100716.31
2022-10-23T03:38:22.466Z,100735.06
2022-10-23T03:40:50.747Z,100737.00
2022-10-23T03:43:19.080Z,100744.22
2022-10-23T03:45:47.315Z,100754.97
2022-10-23T03:48:15.900Z,100748.84
2022-10-23T03:50:44.225Z,100748.91
2022-10-23T03:53:12.545Z,100748.91
2022-10-23T03:55:40.865Z,100737.38
2022-10-23T03:58:09.178Z,100735.72
2022-10-23T04:00:37.964Z,100736.78
2022-10-23T04:03:06.300Z,100734.19
2022-10-23T04:05:34.621Z,100749.34
2022-10-23T04:08:03.105Z,100752.09
2022-10-23T04:10:31.585Z,100750.50
2022-10-23T04:12:59.920Z,100749.78
2022-10-23T04:15:28.218Z,100762.25
2022-10-23T04:17:56.503Z,100768.53
2022-10-23T04:20:24.740Z,100778.44
2022-10-23T04:22:54.705Z,100781.41
2022-10-23T04:25:22.968Z,100777.16
2022-10-23T04:27:51.205Z,100780.88
2022-10-23T04:30:19.575Z,100789.94
2022-10-23T04:32:47.844Z,100792.69
2022-10-23T04:35:16.177Z,100784.03
2022-10-23T04:37:44.672Z,100785.03
2022-10-23T04:40:13.640Z,100787.69
2022-10-23T04:42:42.364Z,100794.81
2022-10-23T04:45:11.264Z,100802.91
2022-10-23T04:47:39.509Z,100803.97
2022-10-23T04:50:08.340Z,100806.63
2022-10-23T04:52:36.582Z,100804.94
2022-10-23T04:55:05.440Z,100796.19
2022-10-23T04:57:33.825Z,100805.13
2022-10-23T05:00:02.136Z,100808.75
2022-10-23T05:02:30.479Z,100822.19
2022-10-23T05:04:58.829Z,100819.53
2022-10-23T05:07:27.157Z,100824.00
2022-10-23T05:09:55.422Z,100815.06
2022-10-23T05:12:26.345Z,100817.94
2022-10-23T05:14:55.440Z,100824.25
2022-10-23T05:17:38.010Z,100822.56
2022-10-23T05:20:13.675Z,100820.84
2022-10-23T05:22:44.361Z,100821.91
2022-10-23T05:25:13.826Z,100821.00
2022-10-23T05:27:42.471Z,100820.13
2022-10-23T05:30:11.875Z,100822.84
2022-10-23T05:32:41.640Z,100821.91
2022-10-23T05:35:14.960Z,100822.94
2022-10-23T05:37:46.628Z,100820.34
2022-10-23T05:40:15.281Z,100822.06
2022-10-23T05:42:43.965Z,100817.72
2022-10-23T05:45:12.630Z,100825.78
2022-10-23T05:47:40.865Z,100832.09
2022-10-23T05:50:09.500Z,100833.09
2022-10-23T05:52:37.815Z,100829.50
2022-10-23T05:55:06.361Z,100833.88
2022-10-23T05:57:35.570Z,100839.38
2022-10-23T06:00:04.529Z,100842.13
2022-10-23T06:02:33.717Z,100848.38
2022-10-23T06:05:02.210Z,100851.16
2022-10-23T06:07:33.713Z,100863.69
2022-10-23T06:10:05.341Z,100870.06
2022-10-23T06:12:36.865Z,100874.69
2022-10-23T06:15:06.286Z,100878.25
2022-10-23T06:17:34.638Z,100884.66
2022-10-23T06:20:03.540Z,100882.19
2022-10-23T06:22:31.893Z,100890.41
2022-10-23T06:25:00.158Z,100896.72
2022-10-23T06:27:28.542Z,100893.38
2022-10-23T06:29:56.878Z,100893.59
2022-10-23T06:32:25.165Z,100900.88
2022-10-23T06:34:53.431Z,100903.72
2022-10-23T06:37:21.798Z,100903.97
2022-10-23T06:39:50.138Z,100909.53
2022-10-23T06:42:18.465Z,100906.13
2022-10-23T06:44:49.670Z,100917.00
2022-10-23T06:49:51.242Z,100909.41
2022-10-23T06:52:41.694Z,100911.41
2022-10-23T06:55:08.545Z,100910.78
2022-10-23T06:57:36.980Z,100905.72
2022-10-23T07:00:06.305Z,100904.97
2022-10-23T07:02:34.550Z,100905.88
2022-10-23T07:05:02.945Z,100917.47
2022-10-23T07:07:32.385Z,100913.94
2022-10-23T07:10:00.774Z,100925.44
2022-10-23T07:12:30.320Z,100920.13
2022-10-23T07:14:58.640Z,100926.38
2022-10-23T07:17:28.780Z,100929.03
2022-10-23T07:19:59.419Z,100918.38
2022-10-23T07:22:27.645Z,100919.31
2022-10-23T07:24:55.850Z,100921.97
2022-10-23T07:27:24.460Z,100928.19
2022-10-23T07:29:54.120Z,100931.78
2022-10-23T07:32:24.810Z,100935.28
2022-10-23T07:34:55.580Z,100933.56
2022-10-23T07:37:24.042Z,100938.88
2022-10-23T07:39:52.702Z,100937.03
2022-10-23T07:42:21.173Z,100938.78
2022-10-23T07:44:49.507Z,100942.34
2022-10-23T07:47:17.978Z,100944.19
2022-10-23T07:49:46.290Z,100953.09
2022-10-23T07:52:14.623Z,100947.88
2022-10-23T07:54:43.071Z,100951.47
2022-10-23T07:57:13.030Z,100945.25
2022-10-23T07:59:41.345Z,100953.31
2022-10-23T08:02:17.275Z,100956.91
2022-10-23T08:04:46.145Z,100948.94
2022-10-23T08:07:14.461Z,100945.47
2022-10-23T08:09:42.697Z,100949.09
2022-10-23T08:12:11.416Z,100950.13
2022-10-23T08:14:39.742Z,100949.34
2022-10-23T08:17:13.646Z,100961.88
2022-10-23T08:19:47.260Z,100955.84
2022-10-23T08:22:16.360Z,100969.25
2022-10-23T08:24:44.660Z,100967.53
2022-10-23T08:27:13.120Z,100961.41
2022-10-23T08:29:41.500Z,100968.72
2022-10-23T08:32:18.467Z,100973.34
2022-10-23T08:34:47.075Z,100970.03
2022-10-23T08:37:15.413Z,100971.13
2022-10-23T08:39:43.880Z,100973.13
2022-10-23T08:42:22.462Z,100972.50
2022-10-23T08:44:59.580Z,100972.69
2022-10-23T08:47:59.412Z,100987.06
2022-10-23T08:50:33.508Z,100982.72
2022-10-23T08:53:10.628Z,100983.66
2022-10-23T08:56:05.081Z,100988.97
2022-10-23T08:59:02.309Z,100984.66
2022-10-23T09:01:51.414Z,100991.75
2022-10-23T09:04:22.618Z,101000.66
2022-10-23T09:07:27.580Z,101004.31
2022-10-23T09:10:26.118Z,100999.13
2022-10-23T09:12:54.528Z,100993.09
2022-10-23T09:15:36.698Z,100994.97
2022-10-23T09:18:19.918Z,101004.72
2022-10-23T09:20:49.340Z,101003.09
2022-10-23T09:23:20.501Z,101012.97
2022-10-23T09:25:54.141Z,101022.78
2022-10-23T09:28:37.640Z,101014.84
2022-10-23T09:31:10.618Z,101014.03
2022-10-23T09:33:40.858Z,101020.25
2022-10-23T09:36:21.665Z,101022.13
2022-10-23T09:38:52.718Z,101019.50
2022-10-23T09:41:26.580Z,101011.66
2022-10-23T09:44:21.120Z,101028.44
2022-10-23T09:46:56.562Z,101038.31
2022-10-23T09:49:26.474Z,101033.00
2022-10-23T09:52:09.618Z,101041.06
2022-10-23T09:54:52.868Z,101039.34
2022-10-23T09:57:33.181Z,101043.84
2022-10-23T10:00:07.893Z,101044.84
2022-10-23T10:02:37.976Z,101055.59
2022-10-23T10:05:30.465Z,101050.44
2022-10-23T10:08:06.704Z,101056.66
2022-10-23T10:10:44.225Z,101054.97
2022-10-23T10:13:43.260Z,101048.88
2022-10-23T10:16:44.501Z,101056.13
2022-10-23T10:19:31.271Z,101060.75
2022-10-23T10:22:10.612Z,101052.03
2022-10-23T10:24:59.895Z,101051.19
2022-10-23T10:27:55.401Z,101059.19
2022-10-23T10:30:26.775Z,101056.69
2022-10-23T10:33:04.020Z,101053.22
2022-10-23T10:36:04.220Z,101053.28
2022-10-23T10:38:45.020Z,101053.38
2022-10-23T10:41:22.972Z,101049.94
2022-10-23T10:44:21.042Z,101047.34
2022-10-23T10:47:21.203Z,101048.38
2022-10-23T10:50:13.978Z,101050.19
2022-10-23T10:53:15.800Z,101047.66
2022-10-23T10:55:45.018Z,101052.09
2022-10-23T10:58:40.062Z,101045.97
2022-10-23T11:01:57.951Z,101053.97
2022-10-23T11:05:07.855Z,101060.16
2022-10-23T11:07:44.738Z,101062.75
2022-10-23T11:10:21.160Z,101067.16
2022-10-23T11:12:50.409Z,101076.03
2022-10-23T11:15:44.116Z,101082.28
2022-10-23T11:18:25.342Z,101081.50
2022-10-23T11:21:10.325Z,101083.38
2022-10-23T11:23:41.271Z,101072.91
2022-10-23T11:26:30.141Z,101085.31
2022-10-23T11:29:17.330Z,101088.94
2022-10-23T11:32:26.663Z,101090.81
2022-10-23T11:34:57.976Z,101092.59
2022-10-23T11:37:31.096Z,101095.25
2022-10-23T11:40:02.618Z,101089.13
2022-10-23T11:42:43.028Z,101087.41
2022-10-23T11:45:50.014Z,101091.81
2022-10-23T11:48:39.741Z,101098.03
2022-10-23T11:51:29.364Z,101102.53
2022-10-23T11:54:28.225Z,101097.31
2022-10-23T11:57:18.500Z,101097.41
2022-10-23T11:59:46.780Z,101100.03
2022-10-23T12:02:43.814Z,101102.78
2022-10-23T12:05:42.515Z,101109.91
2022-10-23T12:08:24.548Z,101118.78
2022-10-23T12:10:54.135Z,101128.50
2022-10-23T12:13:33.779Z,101129.41
2022-10-23T12:16:02.140Z,101133.78
2022-10-23T12:18:30.620Z,101138.25
2022-10-23T12:21:00.865Z,101144.44
2022-10-23T12:23:50.465Z,101146.22
2022-10-23T12:26:51.746Z,101146.31
2022-10-23T12:29:35.578Z,101150.75
2022-10-23T12:32:34.625Z,101157.88
2022-10-23T12:35:48.662Z,101157.88
2022-10-23T12:38:21.621Z,101163.22
2022-10-23T12:41:07.280Z,101168.53
2022-10-23T12:43:38.985Z,101173.00
2022-10-23T12:46:41.620Z,101173.00
2022-10-23T12:49:18.460Z,101175.69
2022-10-23T12:51:55.899Z,101170.47
2022-10-23T12:54:24.880Z,101181.09
2022-10-23T12:56:54.297Z,101181.13
2022-10-23T12:59:36.708Z,101185.50
2022-10-23T13:02:26.129Z,101190.78
2022-10-23T13:05:00.063Z,101194.38
2022-10-23T13:07:34.134Z,101198.78
2022-10-23T13:10:03.542Z,101196.19
2022-10-23T13:12:37.485Z,101197.06
2022-10-23T13:15:14.965Z,101205.88
2022-10-23T13:17:49.030Z,101204.16
2022-10-23T13:20:22.210Z,101205.09
2022-10-23T13:23:12.540Z,101215.69
2022-10-23T13:25:41.395Z,101216.63
2022-10-23T13:28:09.660Z,101216.63
2022-10-23T13:30:58.158Z,101221.97
2022-10-23T13:33:32.030Z,101218.44
2022-10-23T13:36:03.540Z,101217.63
2022-10-23T13:38:35.138Z,101223.84
2022-10-23T13:41:05.662Z,101226.53
2022-10-23T13:43:35.419Z,101228.38
2022-10-23T13:46:04.606Z,101229.31
2022-10-23T13:48:33.000Z,101227.56
2022-10-23T13:51:16.375Z,101232.03
2022-10-23T13:53:44.700Z,101229.41
2022-10-23T13:56:17.495Z,101233.78
2022-10-23T13:58:50.480Z,101232.91
2022-10-23T14:01:21.650Z,101236.50
2022-10-23T14:03:52.062Z,101247.06
2022-10-23T14:06:24.546Z,101249.72
2022-10-23T14:08:53.519Z,101249.72
2022-10-23T14:11:22.300Z,101256.81
2022-10-23T14:13:50.961Z,101250.69
2022-10-23T14:16:24.381Z,101261.22
2022-10-23T14:18:52.960Z,101270.03
2022-10-23T14:21:22.460Z,101265.69
2022-10-23T14:23:52.320Z,101273.63
2022-10-23T14:26:24.182Z,101272.78
2022-10-23T14:29:02.428Z,101277.19
2022-10-23T14:31:38.483Z,101274.59
2022-10-23T14:34:06.914Z,101279.00
2022-10-23T14:36:49.458Z,101278.06
2022-10-23T14:39:19.437Z,101277.16
2022-10-23T14:41:49.012Z,101280.66
2022-10-23T14:44:17.345Z,101289.38
2022-10-23T14:46:45.660Z,101287.63
2022-10-23T14:49:16.653Z,101288.53
2022-10-23T14:51:45.021Z,101289.47
2022-10-23T14:54:16.670Z,101291.22
2022-10-23T14:56:45.095Z,101293.88
2022-10-23T14:59:14.784Z,101288.63
2022-10-23T15:01:48.359Z,101295.69
2022-10-23T15:04:22.375Z,101296.50
2022-10-23T15:06:50.690Z,101306.13
2022-10-23T15:09:22.618Z,101305.19
2022-10-23T15:11:54.356Z,101317.47
2022-10-23T15:14:22.853Z,101320.09
2022-10-23T15:16:51.474Z,101319.13
2022-10-23T15:19:23.095Z,101322.63
2022-10-23T15:21:52.446Z,101326.94
2022-10-23T15:24:21.980Z,101314.59
2022-10-23T15:26:51.265Z,101332.97
2022-10-23T15:29:20.560Z,101331.13
2022-10-23T15:32:00.077Z,101342.44
2022-10-23T15:34:30.461Z,101343.25
2022-10-23T15:36:59.700Z,101341.34
2022-10-23T15:39:36.540Z,101347.38
2022-10-23T15:42:07.235Z,101348.16
2022-10-23T15:44:35.909Z,101362.16
2022-10-23T15:47:04.822Z,101373.50
2022-10-23T15:49:33.629Z,101369.03
2022-10-23T15:52:03.126Z,101374.16
2022-10-23T15:54:32.842Z,101377.53
2022-10-23T15:57:02.495Z,101382.69
2022-10-23T15:59:32.980Z,101381.63
2022-10-23T16:02:01.933Z,101390.19
2022-10-23T16:04:30.397Z,101394.38
2022-10-23T16:06:58.637Z,101392.38
2022-10-23T16:09:26.938Z,101389.47
2022-10-23T16:11:55.257Z,101397.28
2022-10-23T16:14:23.598Z,101406.81
2022-10-23T16:16:54.185Z,101402.22
2022-10-23T16:19:22.605Z,101402.91
2022-10-23T16:21:50.942Z,101395.63
2022-10-23T16:24:19.261Z,101405.19
2022-10-23T16:26:51.260Z,101405.84
2022-10-23T16:29:20.181Z,101405.63
2022-10-23T16:31:48.630Z,101402.75
2022-10-23T16:34:19.839Z,101410.44
2022-10-23T16:36:48.760Z,101403.97
2022-10-23T16:39:20.195Z,101410.69
2022-10-23T16:41:48.546Z,101413.88
2022-10-23T16:44:17.021Z,101412.78
2022-10-23T16:46:48.061Z,101413.50
2022-10-23T16:49:16.398Z,101408.88
2022-10-23T16:51:44.855Z,101419.25
2022-10-23T16:54:14.841Z,101416.34
2022-10-23T16:56:46.140Z,101428.53
2022-10-23T16:59:14.488Z,101430.94
2022-10-23T17:01:42.982Z,101432.59
2022-10-23T17:04:11.420Z,101431.56
2022-10-23T17:06:42.300Z,101437.59
2022-10-23T17:09:10.655Z,101442.63
2022-10-23T17:11:41.480Z,101438.84
2022-10-23T17:14:16.544Z,101445.66
2022-10-23T17:16:49.672Z,101444.53
2022-10-23T17:19:40.078Z,101445.25
2022-10-23T17:22:11.418Z,101439.78
2022-10-23T17:24:42.193Z,101445.78
2022-10-23T17:27:13.091Z,101440.25
2022-10-23T17:29:41.385Z,101450.69
2022-10-23T17:32:09.770Z,101451.38
2022-10-23T17:34:38.840Z,101451.16
2022-10-23T17:37:09.606Z,101450.97
2022-10-23T17:39:37.853Z,101445.41
2022-10-23T17:42:08.539Z,101448.84
2022-10-23T17:44:37.500Z,101447.72
2022-10-23T17:47:05.820Z,101431.53
2022-10-23T17:49:34.261Z,101434.00
2022-10-23T17:52:03.094Z,101431.13
2022-10-23T17:54:32.982Z,101436.28
2022-10-23T17:57:03.905Z,101436.00
2022-10-23T17:59:32.228Z,101445.44
2022-10-23T18:02:03.417Z,101435.47
2022-10-23T18:04:31.822Z,101433.44
2022-10-23T18:07:00.088Z,101438.56
2022-10-23T18:09:28.561Z,101437.44
2022-10-23T18:11:57.026Z,101446.03
2022-10-23T18:14:28.451Z,101437.75
2022-10-23T18:16:58.055Z,101433.88
2022-10-23T18:19:26.419Z,101437.16
2022-10-23T18:21:54.780Z,101436.00
2022-10-23T18:24:23.441Z,101435.78
2022-10-23T18:26:51.740Z,101438.25
2022-10-23T18:29:20.546Z,101438.91
2022-10-23T18:31:51.595Z,101430.69
2022-10-23T18:34:22.913Z,101429.50
2022-10-23T18:36:52.404Z,101424.75
2022-10-23T18:39:23.559Z,101426.38
2022-10-23T18:41:54.802Z,101426.06
2022-10-23T18:44:24.383Z,101417.88
2022-10-23T18:46:53.668Z,101416.66
2022-10-23T18:49:22.140Z,101411.88
2022-10-23T18:51:51.400Z,101402.66
2022-10-23T18:54:23.259Z,101396.66
2022-10-23T18:56:51.751Z,101391.72
2022-10-23T18:59:22.291Z,101379.09
2022-10-23T19:01:51.537Z,101388.50
2022-10-23T19:04:20.195Z,101379.16
2022-10-23T19:06:50.620Z,101376.09
2022-10-23T19:09:22.145Z,101381.97
2022-10-23T19:11:50.621Z,101387.88
2022-10-23T19:14:18.923Z,101397.34
2022-10-23T19:17:12.548Z,101378.34
2022-10-23T19:19:48.065Z,101377.88
2022-10-23T19:22:18.140Z,101375.38
2022-10-23T19:25:03.203Z,101365.13
2022-10-23T19:27:31.920Z,101367.44
2022-10-23T19:30:04.256Z,101367.91
2022-10-23T19:32:32.505Z,101366.53
2022-10-23T19:35:02.136Z,101362.38
2022-10-23T19:37:30.438Z,101351.53
2022-10-23T19:39:58.786Z,101355.72
2022-10-23T19:42:27.066Z,101361.59
2022-10-23T19:44:56.310Z,101369.22
2022-10-23T19:47:24.550Z,101367.06
2022-10-23T19:49:53.345Z,101356.09
2022-10-23T19:52:26.302Z,101361.31
2022-10-23T19:54:54.580Z,101347.59
2022-10-23T19:57:22.894Z,101355.41
2022-10-23T19:59:52.799Z,101348.66
2022-10-23T20:02:21.864Z,101343.56
2022-10-23T20:04:50.331Z,101343.94
2022-10-23T20:07:18.773Z,101343.94
2022-10-23T20:09:47.075Z,101334.88
2022-10-23T20:12:15.561Z,101330.06
2022-10-23T20:14:43.814Z,101320.81
2022-10-23T20:17:12.200Z,101324.75
2022-10-23T20:19:43.050Z,101315.34
2022-10-23T20:22:11.900Z,101314.84
2022-10-23T20:24:43.140Z,101307.56
2022-10-23T20:27:14.601Z,101296.53
2022-10-23T20:29:44.940Z,101296.00
2022-10-23T20:32:13.948Z,101299.97
2022-10-23T20:34:42.792Z,101283.81
2022-10-23T20:37:11.062Z,101278.03
2022-10-23T20:39:40.705Z,101279.78
2022-10-23T20:42:09.023Z,101276.75
2022-10-23T20:44:37.397Z,101268.16
2022-10-23T20:47:05.800Z,101273.69
2022-10-23T20:49:34.115Z,101266.91
2022-10-23T20:52:03.749Z,101263.31
2022-10-23T20:54:34.161Z,101257.13
2022-10-23T20:57:02.461Z,101258.06
2022-10-23T20:59:30.783Z,101261.41
2022-10-23T21:01:59.354Z,101252.25
2022-10-23T21:04:29.781Z,101254.00
2022-10-23T21:07:14.375Z,101242.78
2022-10-23T21:09:45.260Z,101239.03
2022-10-23T21:12:16.059Z,101236.84
2022-10-23T21:14:44.320Z,101230.66
2022-10-23T21:17:17.738Z,101233.47
2022-10-23T21:19:46.295Z,101234.31
2022-10-23T21:22:14.947Z,101236.25
2022-10-23T21:24:43.274Z,101251.84
2022-10-23T21:27:11.900Z,101245.59
2022-10-23T21:29:40.231Z,101237.31
2022-10-23T21:32:08.541Z,101240.97
2022-10-23T21:34:36.864Z,101252.28
2022-10-23T21:37:14.541Z,101244.38
2022-10-23T21:39:44.754Z,101243.34
2022-10-23T21:42:16.612Z,101240.78
2022-10-23T21:44:45.020Z,101248.56
2022-10-23T21:47:13.315Z,101244.91
2022-10-23T21:49:41.782Z,101240.47
2022-10-23T21:52:10.140Z,101235.75
2022-10-23T21:54:38.380Z,101242.78
2022-10-23T21:57:06.767Z,101227.88
2022-10-23T21:59:36.435Z,101240.66
2022-10-23T22:02:05.192Z,101232.53
2022-10-23T22:04:33.751Z,101239.03
2022-10-23T22:07:03.749Z,101237.31
2022-10-23T22:09:33.504Z,101234.16
2022-10-23T22:12:02.302Z,101227.56
2022-10-23T22:14:30.776Z,101230.13
2022-10-23T22:16:59.995Z,101234.25
2022-10-23T22:19:28.397Z,101236.41
2022-10-23T22:21:56.855Z,101224.47
2022-10-23T22:24:25.508Z,101221.84
2022-10-23T22:26:56.848Z,101228.09
2022-10-23T22:29:28.515Z,101224.56
2022-10-23T22:31:57.661Z,101229.75
2022-10-23T22:37:17.500Z,101231.91
2022-10-23T22:39:45.875Z,101230.91
2022-10-23T22:42:14.195Z,101234.03
2022-10-23T22:44:42.480Z,101243.56
2022-10-23T22:47:10.728Z,101233.75
2022-10-23T22:49:39.397Z,101226.38
2022-10-23T22:52:07.696Z,101228.22
2022-10-23T22:54:36.135Z,101223.78
2022-10-23T22:57:04.446Z,101234.13
2022-10-23T22:59:35.341Z,101237.09
2022-10-23T23:02:03.686Z,101234.97
2022-10-23T23:04:39.467Z,101230.41
2022-10-23T23:07:13.079Z,101223.56
2022-10-23T23:09:43.943Z,101227.84
2022-10-23T23:12:15.082Z,101223.03
2022-10-23T23:14:44.480Z,101224.31
2022-10-23T23:17:13.500Z,101228.66
2022-10-23T23:19:41.829Z,101228.47
2022-10-23T23:22:10.321Z,101237.13
2022-10-23T23:24:38.616Z,101238.97
2022-10-23T23:27:07.103Z,101239.53
2022-10-23T23:29:35.796Z,101242.78
2022-10-23T23:32:07.102Z,101254.22
2022-10-23T23:34:35.333Z,101260.53
2022-10-23T23:37:03.586Z,101262.25
2022-10-23T23:39:32.020Z,101257.44
2022-10-23T23:42:00.380Z,101259.38
2022-10-23T23:44:28.713Z,101256.78
2022-10-23T23:46:57.020Z,101267.56
2022-10-23T23:49:25.812Z,101258.69
2022-10-23T23:51:56.101Z,101255.25
2022-10-23T23:54:24.425Z,101253.59
2022-10-23T23:56:53.460Z,101252.13
2022-10-23T23:59:21.815Z,101236.38
